createdAt,value
2022-08-05T00:00:17.094Z,6.67
2022-08-05T00:02:50.633Z,7.33
2022-08-05T00:06:03.153Z,7.33
2022-08-05T00:08:19.719Z,6.67
2022-08-05T00:11:00.272Z,8.00
2022-08-05T00:13:39.206Z,7.67
2022-08-05T00:16:12.490Z,7.33
2022-08-05T00:18:45.769Z,6.67
2022-08-05T00:21:15.890Z,8.00
2022-08-05T00:23:46.085Z,7.00
2022-08-05T00:26:14.784Z,6.00
2022-08-05T00:28:44.028Z,8.00
2022-08-05T00:31:13.266Z,6.00
2022-08-05T00:34:55.858Z,6.67
2022-08-05T00:37:11.940Z,7.00
2022-08-05T00:39:15.180Z,6.67
2022-08-05T00:41:52.029Z,7.00
2022-08-05T00:44:23.478Z,8.33
2022-08-05T00:47:02.014Z,7.00
2022-08-05T00:49:44.367Z,8.00
2022-08-05T00:52:18.494Z,7.00
2022-08-05T00:54:56.000Z,3.67
2022-08-05T00:57:25.465Z,8.00
2022-08-05T01:00:07.470Z,6.00
2022-08-05T01:02:38.350Z,8.00
2022-08-05T01:05:09.975Z,8.00
2022-08-05T01:07:37.792Z,7.33
2022-08-05T01:10:29.545Z,8.00
2022-08-05T01:13:05.339Z,7.00
2022-08-05T01:15:47.732Z,6.00
2022-08-05T01:18:16.929Z,7.00
2022-08-05T01:21:13.262Z,6.00
2022-08-05T01:23:56.383Z,6.00
2022-08-05T01:27:00.796Z,6.00
2022-08-05T01:29:47.566Z,8.00
2022-08-05T01:32:18.413Z,7.00
2022-08-05T01:34:59.429Z,6.00
2022-08-05T01:37:36.567Z,7.00
2022-08-05T01:40:04.508Z,7.00
2022-08-05T01:42:31.629Z,7.00
2022-08-05T01:44:59.895Z,6.67
2022-08-05T01:47:38.986Z,7.67
2022-08-05T01:50:18.327Z,7.00
2022-08-05T01:52:50.149Z,7.00
2022-08-05T01:55:18.908Z,7.33
2022-08-05T01:58:10.132Z,7.67
2022-08-05T02:00:34.438Z,7.33
2022-08-05T02:03:07.826Z,6.00
2022-08-05T02:05:53.438Z,7.00
2022-08-05T02:08:31.199Z,7.00
2022-08-05T02:11:11.768Z,7.67
2022-08-05T02:13:53.449Z,8.00
2022-08-05T02:16:42.709Z,7.00
2022-08-05T02:19:34.317Z,7.33
2022-08-05T02:22:26.798Z,8.00
2022-08-05T02:25:00.228Z,8.00
2022-08-05T02:27:30.265Z,6.00
2022-08-05T02:30:14.661Z,7.00
2022-08-05T02:32:42.610Z,7.00
2022-08-05T02:35:14.664Z,7.33
2022-08-05T02:37:46.506Z,7.33
2022-08-05T02:40:19.706Z,5.33
2022-08-05T02:42:52.823Z,7.33
2022-08-05T02:45:24.031Z,8.00
2022-08-05T02:48:06.901Z,7.00
2022-08-05T02:50:43.925Z,6.67
2022-08-05T02:53:19.114Z,7.33
2022-08-05T02:55:52.113Z,7.00
2022-08-05T02:58:27.276Z,8.00
2022-08-05T03:00:57.472Z,6.33
2022-08-05T03:03:24.596Z,7.00
2022-08-05T03:06:55.505Z,6.67
2022-08-05T03:08:42.613Z,7.33
2022-08-05T03:11:56.069Z,8.00
2022-08-05T03:14:15.956Z,7.00
2022-08-05T03:16:44.346Z,6.00
2022-08-05T03:19:12.723Z,6.33
2022-08-05T03:21:49.587Z,7.33
2022-08-05T03:24:29.586Z,4.00
2022-08-05T03:26:59.580Z,6.00
2022-08-05T03:29:45.216Z,8.67
2022-08-05T03:32:14.582Z,6.33
2022-08-05T03:34:51.100Z,7.33
2022-08-05T03:37:19.296Z,7.00
2022-08-05T03:39:59.406Z,6.00
2022-08-05T03:42:32.297Z,6.67
2022-08-05T03:45:01.867Z,6.00
2022-08-05T03:47:47.762Z,7.00
2022-08-05T03:50:16.485Z,7.00
2022-08-05T03:55:51.843Z,6.00
2022-08-05T03:56:11.473Z,7.33
2022-08-05T03:58:41.199Z,7.00
2022-08-05T04:01:11.294Z,6.00
2022-08-05T04:03:40.107Z,7.67
2022-08-05T04:06:27.364Z,5.00
2022-08-05T04:08:54.519Z,5.67
2022-08-05T04:11:21.608Z,6.00
2022-08-05T04:13:53.405Z,7.00
2022-08-05T04:16:25.320Z,6.00
2022-08-05T04:19:00.168Z,5.00
2022-08-05T04:22:09.469Z,7.00
2022-08-05T04:24:19.564Z,6.00
2022-08-05T04:26:50.171Z,7.00
2022-08-05T04:29:17.324Z,6.00
2022-08-05T04:31:44.371Z,5.00
2022-08-05T04:34:19.715Z,7.67
2022-08-05T04:37:00.757Z,7.00
2022-08-05T04:39:28.020Z,6.00
2022-08-05T04:41:55.359Z,7.00
2022-08-05T04:44:29.489Z,4.67
2022-08-05T04:46:59.174Z,7.00
2022-08-05T04:49:38.741Z,5.33
2022-08-05T04:52:14.412Z,6.00
2022-08-05T04:54:42.548Z,5.67
2022-08-05T04:57:09.673Z,6.00
2022-08-05T04:59:38.852Z,5.33
2022-08-05T05:02:36.741Z,4.67
2022-08-05T05:05:02.163Z,6.00
2022-08-05T05:07:32.210Z,7.33
2022-08-05T05:10:02.046Z,5.33
2022-08-05T05:12:29.587Z,5.67
2022-08-05T05:14:56.692Z,7.00
2022-08-05T05:17:55.930Z,5.00
2022-08-05T05:20:11.910Z,6.33
2022-08-05T05:22:40.763Z,6.67
2022-08-05T05:25:17.022Z,7.00
2022-08-05T05:27:53.464Z,6.00
2022-08-05T05:30:29.190Z,6.00
2022-08-05T05:33:00.395Z,4.33
2022-08-05T05:35:34.140Z,5.33
2022-08-05T05:38:03.465Z,5.00
2022-08-05T05:40:32.847Z,6.00
2022-08-05T05:43:02.065Z,7.00
2022-08-05T05:45:29.494Z,6.00
2022-08-05T05:48:06.423Z,4.00
2022-08-05T05:50:41.139Z,6.00
2022-08-05T05:53:22.203Z,5.00
2022-08-05T05:55:51.962Z,5.33
2022-08-05T05:58:31.893Z,5.00
2022-08-05T06:01:12.664Z,6.00
2022-08-05T06:04:00.936Z,5.00
2022-08-05T06:06:33.083Z,6.00
2022-08-05T06:09:01.829Z,5.67
2022-08-05T06:11:31.618Z,6.00
2022-08-05T06:14:00.357Z,4.33
2022-08-05T06:16:32.801Z,5.00
2022-08-05T06:19:05.976Z,5.33
2022-08-05T06:21:36.889Z,5.67
2022-08-05T06:24:11.553Z,6.00
2022-08-05T06:26:51.531Z,4.33
2022-08-05T06:29:25.444Z,5.00
2022-08-05T06:32:25.037Z,5.00
2022-08-05T06:34:56.274Z,5.67
2022-08-05T06:37:55.622Z,6.00
2022-08-05T06:40:12.741Z,5.00
2022-08-05T06:42:40.888Z,5.00
2022-08-05T06:45:09.372Z,4.33
2022-08-05T06:48:36.685Z,5.00
2022-08-05T06:50:25.241Z,5.00
2022-08-05T06:53:03.617Z,5.00
2022-08-05T06:55:38.500Z,4.67
2022-08-05T06:58:29.261Z,5.00
2022-08-05T07:01:03.535Z,5.33
2022-08-05T07:03:32.737Z,5.00
2022-08-05T07:06:05.946Z,2.33
2022-08-05T07:08:48.039Z,4.33
2022-08-05T07:11:22.129Z,5.00
2022-08-05T07:14:15.482Z,5.00
2022-08-05T07:17:59.535Z,5.00
2022-08-05T07:22:27.867Z,6.00
2022-08-05T07:24:57.653Z,5.00
2022-08-05T07:27:27.638Z,5.33
2022-08-05T07:30:25.543Z,5.00
2022-08-05T07:32:55.436Z,5.33
2022-08-05T07:36:02.656Z,4.00
2022-08-05T07:38:12.454Z,4.67
2022-08-05T07:41:02.807Z,5.00
2022-08-05T07:43:44.438Z,5.00
2022-08-05T07:46:24.561Z,4.00
2022-08-05T07:49:02.310Z,5.00
2022-08-05T07:51:40.865Z,4.67
2022-08-05T07:54:26.317Z,4.00
2022-08-05T07:57:01.271Z,4.33
2022-08-05T07:59:41.049Z,4.00
2022-08-05T08:02:16.105Z,5.00
2022-08-05T08:04:48.259Z,2.00
2022-08-05T08:07:16.369Z,4.00
2022-08-05T08:09:45.380Z,5.33
2022-08-05T08:12:35.036Z,5.00
2022-08-05T08:15:04.552Z,4.00
2022-08-05T08:17:32.631Z,4.33
2022-08-05T08:20:43.784Z,5.00
2022-08-05T08:22:56.753Z,5.00
2022-08-05T08:25:26.930Z,4.33
2022-08-05T08:28:18.309Z,4.00
2022-08-05T08:30:49.574Z,5.33
2022-08-05T08:33:17.556Z,4.67
2022-08-05T08:35:52.729Z,7.00
2022-08-05T08:38:32.154Z,5.33
2022-08-05T08:41:08.800Z,5.67
2022-08-05T08:45:18.773Z,4.33
2022-08-05T08:46:24.427Z,4.00
2022-08-05T08:49:07.796Z,4.00
2022-08-05T08:52:03.648Z,5.00
2022-08-05T08:54:27.614Z,4.00
2022-08-05T08:56:56.475Z,5.00
2022-08-05T08:59:27.695Z,4.67
2022-08-05T09:02:01.534Z,4.33
2022-08-05T09:04:30.674Z,5.00
2022-08-05T09:06:58.751Z,4.00
2022-08-05T09:09:34.817Z,4.00
2022-08-05T09:12:20.290Z,4.67
2022-08-05T09:14:59.516Z,4.00
2022-08-05T09:17:40.648Z,4.67
2022-08-05T09:20:09.408Z,5.00
2022-08-05T09:23:07.741Z,4.00
2022-08-05T09:26:00.052Z,5.00
2022-08-05T09:28:32.462Z,5.00
2022-08-05T09:31:23.442Z,4.00
2022-08-05T09:33:56.175Z,5.00
2022-08-05T09:36:27.818Z,4.00
2022-08-05T09:39:18.231Z,4.67
2022-08-05T09:42:04.822Z,4.00
2022-08-05T09:44:42.731Z,4.00
2022-08-05T09:47:15.521Z,4.00
2022-08-05T09:50:02.337Z,4.33
2022-08-05T09:52:35.115Z,4.00
2022-08-05T09:55:57.297Z,5.00
2022-08-05T09:57:54.840Z,3.33
2022-08-05T10:00:27.597Z,4.00
2022-08-05T10:02:58.264Z,4.33
2022-08-05T10:05:28.085Z,3.67
2022-08-05T10:08:35.319Z,4.00
2022-08-05T10:10:45.206Z,4.33
2022-08-05T10:13:45.593Z,4.33
2022-08-05T10:16:41.839Z,3.00
2022-08-05T10:19:23.761Z,4.67
2022-08-05T10:21:59.345Z,4.00
2022-08-05T10:24:27.236Z,3.00
2022-08-05T10:27:00.334Z,4.00
2022-08-05T10:30:06.432Z,5.00
2022-08-05T10:33:01.021Z,3.33
2022-08-05T10:35:04.182Z,3.33
2022-08-05T10:37:44.392Z,2.67
2022-08-05T10:40:19.687Z,4.00
2022-08-05T10:42:51.562Z,4.00
2022-08-05T10:45:40.448Z,3.00
2022-08-05T10:48:36.029Z,3.00
2022-08-05T10:51:21.686Z,5.00
2022-08-05T10:53:52.341Z,9.67
2022-08-05T10:56:31.470Z,12.00
2022-08-05T10:59:07.273Z,13.00
2022-08-05T11:02:14.103Z,12.00
2022-08-05T11:04:48.189Z,11.00
2022-08-05T11:07:18.292Z,11.00
2022-08-05T11:10:03.700Z,14.00
2022-08-05T11:12:45.368Z,14.67
2022-08-05T11:15:21.303Z,15.33
2022-08-05T11:17:59.783Z,16.00
2022-08-05T11:20:51.679Z,17.33
2022-08-05T11:23:56.912Z,18.00
2022-08-05T11:26:28.031Z,20.00
2022-08-05T11:29:06.868Z,19.33
2022-08-05T11:31:56.486Z,20.33
2022-08-05T11:34:47.473Z,22.25
2022-08-05T11:38:36.830Z,23.67
2022-08-05T11:41:34.835Z,24.00
2022-08-05T11:44:05.821Z,24.00
2022-08-05T11:46:58.496Z,24.75
2022-08-05T11:49:27.750Z,23.50
2022-08-05T11:51:55.074Z,24.00
2022-08-05T11:54:33.971Z,25.25
2022-08-05T11:57:08.325Z,24.00
2022-08-05T11:59:50.688Z,21.25
2022-08-05T12:02:29.855Z,23.50
2022-08-05T12:05:00.275Z,22.25
2022-08-05T12:08:02.624Z,23.25
2022-08-05T12:10:14.758Z,24.00
2022-08-05T12:12:55.362Z,23.75
2022-08-05T12:15:35.850Z,22.75
2022-08-05T12:18:10.957Z,23.75
2022-08-05T12:20:39.055Z,23.50
2022-08-05T12:23:12.511Z,23.75
2022-08-05T12:25:56.767Z,24.00
2022-08-05T12:28:50.465Z,24.25
2022-08-05T12:31:23.778Z,24.00
2022-08-05T12:34:06.991Z,23.33
2022-08-05T12:36:35.065Z,22.25
2022-08-05T12:39:03.019Z,23.00
2022-08-05T12:41:34.368Z,22.25
2022-08-05T12:44:06.647Z,21.67
2022-08-05T12:46:40.485Z,21.67
2022-08-05T12:49:19.045Z,22.67
2022-08-05T12:52:14.199Z,23.00
2022-08-05T12:54:49.725Z,24.33
2022-08-05T12:57:17.271Z,22.00
2022-08-05T13:01:58.499Z,23.25
2022-08-05T13:02:39.873Z,23.00
2022-08-05T13:05:07.966Z,22.00
2022-08-05T13:10:24.350Z,22.00
2022-08-05T13:12:58.072Z,22.33
2022-08-05T13:15:41.769Z,21.00
2022-08-05T13:18:19.543Z,21.67
2022-08-05T13:20:49.365Z,20.33
2022-08-05T13:23:22.044Z,22.00
2022-08-05T13:25:59.497Z,21.67
2022-08-05T13:28:28.769Z,23.50
2022-08-05T13:30:57.199Z,24.00
2022-08-05T13:34:24.102Z,23.00
2022-08-05T13:36:14.352Z,24.00
2022-08-05T13:38:42.957Z,21.67
2022-08-05T13:41:13.179Z,22.67
2022-08-05T13:43:45.689Z,21.00
2022-08-05T13:49:13.067Z,21.00
2022-08-05T13:51:46.688Z,20.00
2022-08-05T13:54:15.459Z,21.00
2022-08-05T13:56:45.467Z,20.00
2022-08-05T13:59:25.083Z,20.67
2022-08-05T14:01:58.063Z,20.33
2022-08-05T14:04:50.085Z,19.00
2022-08-05T14:07:55.487Z,20.00
2022-08-05T14:10:11.230Z,20.00
2022-08-05T14:12:38.410Z,19.00
2022-08-05T14:16:05.835Z,20.33
2022-08-05T14:17:55.033Z,16.00
2022-08-05T14:20:27.389Z,18.00
2022-08-05T14:22:54.893Z,19.00
2022-08-05T14:25:28.265Z,17.00
2022-08-05T14:27:58.468Z,21.00
2022-08-05T14:30:26.652Z,19.33
2022-08-05T14:32:55.070Z,19.33
2022-08-05T14:35:24.077Z,19.33
2022-08-05T14:38:04.737Z,19.33
2022-08-05T14:40:31.890Z,16.00
2022-08-05T14:43:01.148Z,19.67
2022-08-05T14:45:28.198Z,20.00
2022-08-05T14:48:03.915Z,18.33
2022-08-05T14:50:35.980Z,19.33
2022-08-05T14:53:06.951Z,19.00
2022-08-05T14:55:39.974Z,18.00
2022-08-05T14:58:11.407Z,20.00
2022-08-05T15:00:59.751Z,18.00
2022-08-05T15:03:33.876Z,18.33
2022-08-05T15:06:13.535Z,18.00
2022-08-05T15:09:01.059Z,17.00
2022-08-05T15:11:53.134Z,19.33
2022-08-05T15:14:34.943Z,18.00
2022-08-05T15:17:05.036Z,18.67
2022-08-05T15:19:37.117Z,17.00
2022-08-05T15:22:06.280Z,17.67
2022-08-05T15:24:33.302Z,17.00
2022-08-05T15:27:00.416Z,18.67
2022-08-05T15:29:29.864Z,18.00
2022-08-05T15:32:02.351Z,17.00
2022-08-05T15:34:33.243Z,18.67
2022-08-05T15:37:06.373Z,17.67
2022-08-05T15:41:02.715Z,18.33
2022-08-05T15:42:58.341Z,19.00
2022-08-05T15:45:16.724Z,18.00
2022-08-05T15:47:46.052Z,16.67
2022-08-05T15:50:15.870Z,17.00
2022-08-05T15:52:53.572Z,18.67
2022-08-05T15:55:24.476Z,19.00
2022-08-05T15:57:52.680Z,17.67
2022-08-05T16:00:26.342Z,14.00
2022-08-05T16:03:07.064Z,18.00
2022-08-05T16:05:34.240Z,17.00
2022-08-05T16:08:01.348Z,15.33
2022-08-05T16:10:28.490Z,15.67
2022-08-05T16:12:56.394Z,17.00
2022-08-05T16:15:23.996Z,17.67
2022-08-05T16:17:59.300Z,17.67
2022-08-05T16:20:27.981Z,17.67
2022-08-05T16:22:55.348Z,16.33
2022-08-05T16:25:32.266Z,18.00
2022-08-05T16:28:06.399Z,17.67
2022-08-05T16:30:36.854Z,15.00
2022-08-05T16:33:03.977Z,18.00
2022-08-05T16:35:33.501Z,16.67
2022-08-05T16:38:23.760Z,16.00
2022-08-05T16:40:55.317Z,17.33
2022-08-05T16:43:27.518Z,18.67
2022-08-05T16:46:04.753Z,17.00
2022-08-05T16:48:36.062Z,16.00
2022-08-05T16:51:09.390Z,16.00
2022-08-05T16:54:02.848Z,16.67
2022-08-05T16:56:26.909Z,16.67
2022-08-05T16:58:54.395Z,16.00
2022-08-05T17:01:21.584Z,17.33
2022-08-05T17:03:52.197Z,17.00
2022-08-05T17:06:20.468Z,16.33
2022-08-05T17:08:54.192Z,16.67
2022-08-05T17:11:25.289Z,17.00
2022-08-05T17:14:00.550Z,17.33
2022-08-05T17:16:36.771Z,18.00
2022-08-05T17:19:07.452Z,16.00
2022-08-05T17:21:37.013Z,15.00
2022-08-05T17:24:19.758Z,16.33
2022-08-05T17:26:58.053Z,17.33
2022-08-05T17:29:34.043Z,16.33
2022-08-05T17:32:11.256Z,16.00
2022-08-05T17:34:43.573Z,17.00
2022-08-05T17:37:16.935Z,17.67
2022-08-05T17:39:59.875Z,16.67
2022-08-05T17:42:32.252Z,16.33
2022-08-05T17:45:09.939Z,16.00
2022-08-05T17:47:52.948Z,14.67
2022-08-05T17:50:28.934Z,16.00
2022-08-05T17:52:59.323Z,17.00
2022-08-05T17:55:34.141Z,16.67
2022-08-05T17:58:04.682Z,18.00
2022-08-05T18:00:34.804Z,15.33
2022-08-05T18:03:02.712Z,17.33
2022-08-05T18:05:35.393Z,16.00
2022-08-05T18:08:03.599Z,16.00
2022-08-05T18:10:33.424Z,15.00
2022-08-05T18:13:01.905Z,16.67
2022-08-05T18:15:36.207Z,15.67
2022-08-05T18:18:11.198Z,15.00
2022-08-05T18:20:38.684Z,14.67
2022-08-05T18:23:09.182Z,15.33
2022-08-05T18:25:38.989Z,14.33
2022-08-05T18:28:07.136Z,14.33
2022-08-05T18:30:36.475Z,16.33
2022-08-05T18:33:07.725Z,15.00
2022-08-05T18:36:01.254Z,16.00
2022-08-05T18:38:26.248Z,14.00
2022-08-05T18:41:57.518Z,15.00
2022-08-05T18:43:42.954Z,14.33
2022-08-05T18:46:19.842Z,12.33
2022-08-05T18:48:51.932Z,15.33
2022-08-05T18:52:06.302Z,15.67
2022-08-05T18:54:31.002Z,14.00
2022-08-05T18:57:01.999Z,15.00
2022-08-05T18:59:44.470Z,16.00
2022-08-05T19:02:26.396Z,15.33
2022-08-05T19:05:03.189Z,15.00
2022-08-05T19:07:45.129Z,16.00
2022-08-05T19:10:12.748Z,14.33
2022-08-05T19:12:40.760Z,14.67
2022-08-05T19:15:25.207Z,15.67
2022-08-05T19:18:09.074Z,16.67
2022-08-05T19:20:37.334Z,15.33
2022-08-05T19:24:03.958Z,14.00
2022-08-05T19:26:02.055Z,16.00
2022-08-05T19:28:33.137Z,14.33
2022-08-05T19:31:00.992Z,15.33
2022-08-05T19:33:35.355Z,15.33
2022-08-05T19:36:06.005Z,14.67
2022-08-05T19:38:35.919Z,14.33
2022-08-05T19:41:07.172Z,14.33
2022-08-05T19:44:05.326Z,16.00
2022-08-05T19:46:29.293Z,15.33
2022-08-05T19:49:07.031Z,12.00
2022-08-05T19:52:05.390Z,14.67
2022-08-05T19:54:29.558Z,14.00
2022-08-05T19:57:09.415Z,12.00
2022-08-05T19:59:55.306Z,14.00
2022-08-05T20:02:26.333Z,14.00
2022-08-05T20:04:58.796Z,13.00
2022-08-05T20:07:47.415Z,13.33
2022-08-05T20:10:16.731Z,12.67
2022-08-05T20:12:47.757Z,15.00
2022-08-05T20:15:23.012Z,13.67
2022-08-05T20:18:10.441Z,12.00
2022-08-05T20:20:56.199Z,14.33
2022-08-05T20:23:40.569Z,14.00
2022-08-05T20:26:15.283Z,14.67
2022-08-05T20:28:45.805Z,15.00
2022-08-05T20:31:14.274Z,14.00
2022-08-05T20:33:45.016Z,14.67
2022-08-05T20:36:14.304Z,13.33
2022-08-05T20:38:53.581Z,13.00
2022-08-05T20:41:27.110Z,14.33
2022-08-05T20:44:18.962Z,13.33
2022-08-05T20:46:57.664Z,14.00
2022-08-05T20:49:25.908Z,13.00
2022-08-05T20:51:54.363Z,13.33
2022-08-05T20:54:55.132Z,13.33
2022-08-05T20:57:24.625Z,12.67
2022-08-05T21:00:21.177Z,14.33
2022-08-05T21:03:01.349Z,13.00
2022-08-05T21:05:48.306Z,13.67
2022-08-05T21:08:17.026Z,13.33
2022-08-05T21:10:48.508Z,14.00
2022-08-05T21:13:26.508Z,13.67
2022-08-05T21:16:06.122Z,13.67
2022-08-05T21:18:33.286Z,11.67
2022-08-05T21:21:00.359Z,9.33
2022-08-05T21:23:27.488Z,14.33
2022-08-05T21:26:04.462Z,12.00
2022-08-05T21:28:50.515Z,13.00
2022-08-05T21:31:18.709Z,14.00
2022-08-05T21:33:47.569Z,13.67
2022-08-05T21:36:19.053Z,13.00
2022-08-05T21:38:55.142Z,13.00
2022-08-05T21:41:22.385Z,13.33
2022-08-05T21:43:50.956Z,13.00
2022-08-05T21:46:29.216Z,13.67
2022-08-05T21:48:56.866Z,11.67
2022-08-05T21:52:22.525Z,13.67
2022-08-05T21:54:14.066Z,14.67
2022-08-05T21:56:44.543Z,12.67
2022-08-05T21:59:22.563Z,9.33
2022-08-05T22:01:54.514Z,12.00
2022-08-05T22:04:25.464Z,12.00
2022-08-05T22:06:53.144Z,12.33
2022-08-05T22:09:21.020Z,11.33
2022-08-05T22:11:48.957Z,13.00
2022-08-05T22:14:33.547Z,11.00
2022-08-05T22:17:04.062Z,11.67
2022-08-05T22:20:00.226Z,13.00
2022-08-05T22:22:26.999Z,14.33
2022-08-05T22:25:21.665Z,12.67
2022-08-05T22:28:10.557Z,13.00
2022-08-05T22:30:55.566Z,13.00
2022-08-05T22:33:57.489Z,10.00
2022-08-05T22:36:15.561Z,12.67
2022-08-05T22:38:47.999Z,11.67
2022-08-05T22:42:04.179Z,12.00
2022-08-05T22:44:04.158Z,12.00
2022-08-05T22:46:31.622Z,12.00
2022-08-05T22:48:59.596Z,11.00
2022-08-05T22:52:05.945Z,12.00
2022-08-05T22:54:14.643Z,11.67
2022-08-05T22:56:41.996Z,12.00
2022-08-05T22:59:44.085Z,13.00
2022-08-05T23:02:06.048Z,10.33
2022-08-05T23:04:35.322Z,13.67
2022-08-05T23:07:03.143Z,12.00
2022-08-05T23:09:53.464Z,12.00
2022-08-05T23:12:23.882Z,13.00
2022-08-05T23:14:51.725Z,11.67
2022-08-05T23:17:35.019Z,11.67
2022-08-05T23:20:10.134Z,10.00
2022-08-05T23:22:44.045Z,12.67
2022-08-05T23:25:50.059Z,10.00
2022-08-05T23:28:02.314Z,12.33
2022-08-05T23:30:31.294Z,13.33
2022-08-05T23:32:58.873Z,12.67
2022-08-05T23:35:28.650Z,10.67
2022-08-05T23:38:01.672Z,13.00
2022-08-05T23:40:28.829Z,13.00
2022-08-05T23:42:55.976Z,14.00
2022-08-05T23:45:23.559Z,12.33
2022-08-05T23:47:53.720Z,11.33
2022-08-05T23:50:26.712Z,11.00
2022-08-05T23:52:55.677Z,12.00
2022-08-05T23:55:30.816Z,12.33
2022-08-05T23:57:58.375Z,12.33
